createdAt,value
2023-02-11T00:00:22.327Z,9.73
2023-02-11T00:02:48.978Z,9.65
2023-02-11T00:05:15.670Z,9.64
2023-02-11T00:07:42.280Z,9.65
2023-02-11T00:10:09.177Z,9.80
2023-02-11T00:12:36.362Z,9.84
2023-02-11T00:15:03.225Z,9.79
2023-02-11T00:17:29.926Z,9.79
2023-02-11T00:19:56.507Z,9.78
2023-02-11T00:22:23.120Z,9.76
2023-02-11T00:24:49.781Z,9.87
2023-02-11T00:27:16.399Z,9.93
2023-02-11T00:29:43.033Z,10.02
2023-02-11T00:32:09.592Z,10.14
2023-02-11T00:34:36.460Z,10.25
2023-02-11T00:37:03.395Z,10.24
2023-02-11T00:39:30.156Z,10.27
2023-02-11T00:41:56.796Z,10.26
2023-02-11T00:44:23.458Z,10.26
2023-02-11T00:46:50.118Z,10.30
2023-02-11T00:49:18.226Z,10.34
2023-02-11T00:51:44.765Z,10.42
2023-02-11T00:54:11.737Z,10.37
2023-02-11T00:56:39.056Z,10.23
2023-02-11T00:59:05.829Z,10.22
2023-02-11T01:01:32.485Z,10.28
2023-02-11T01:03:59.114Z,10.37
2023-02-11T01:06:25.678Z,10.24
2023-02-11T01:08:52.419Z,10.16
2023-02-11T01:11:19.922Z,10.22
2023-02-11T01:13:47.808Z,10.14
2023-02-11T01:16:15.622Z,10.12
2023-02-11T01:18:44.348Z,10.13
2023-02-11T01:21:11.248Z,10.07
2023-02-11T01:23:37.909Z,10.01
2023-02-11T01:26:05.001Z,9.95
2023-02-11T01:28:32.417Z,9.98
2023-02-11T01:31:00.758Z,10.08
2023-02-11T01:33:27.721Z,10.05
2023-02-11T01:35:54.521Z,10.11
2023-02-11T01:38:22.503Z,10.00
2023-02-11T01:40:53.744Z,10.02
2023-02-11T01:43:27.200Z,10.16
2023-02-11T01:46:03.081Z,10.11
2023-02-11T01:48:35.653Z,10.02
2023-02-11T01:51:09.065Z,9.98
2023-02-11T01:53:56.411Z,10.10
2023-02-11T01:56:44.222Z,10.06
2023-02-11T01:59:17.224Z,10.15
2023-02-11T02:01:46.240Z,9.99
2023-02-11T02:04:15.078Z,9.86
2023-02-11T02:06:46.267Z,9.84
2023-02-11T02:09:19.785Z,9.89
2023-02-11T02:11:46.435Z,9.82
2023-02-11T02:14:13.689Z,9.75
2023-02-11T02:16:40.439Z,9.73
2023-02-11T02:19:25.673Z,9.65
2023-02-11T02:22:04.276Z,9.33
2023-02-11T02:24:39.855Z,9.13
2023-02-11T02:27:18.590Z,9.02
2023-02-11T02:30:00.298Z,8.92
2023-02-11T02:32:32.740Z,8.77
2023-02-11T02:35:12.794Z,8.76
2023-02-11T02:37:50.238Z,8.83
2023-02-11T02:40:19.232Z,8.71
2023-02-11T02:42:47.329Z,8.70
2023-02-11T02:45:13.943Z,8.59
2023-02-11T02:47:44.044Z,8.54
2023-02-11T02:50:12.063Z,8.51
2023-02-11T02:53:01.317Z,8.50
2023-02-11T02:55:33.809Z,8.42
2023-02-11T02:58:09.245Z,8.32
2023-02-11T03:01:02.129Z,8.44
2023-02-11T03:03:37.653Z,8.49
2023-02-11T03:06:07.097Z,8.70
2023-02-11T03:08:46.097Z,8.83
2023-02-11T03:11:15.633Z,8.94
2023-02-11T03:13:43.236Z,9.04
2023-02-11T03:16:13.231Z,9.10
2023-02-11T03:18:42.667Z,9.26
2023-02-11T03:21:10.188Z,9.32
2023-02-11T03:23:39.293Z,9.50
2023-02-11T03:26:05.795Z,9.55
2023-02-11T03:28:35.763Z,9.68
2023-02-11T03:31:09.852Z,9.76
2023-02-11T03:33:52.037Z,9.82
2023-02-11T03:36:22.939Z,9.76
2023-02-11T03:38:51.917Z,9.83
2023-02-11T03:41:21.525Z,9.74
2023-02-11T03:43:53.226Z,9.66
2023-02-11T03:46:22.089Z,9.65
2023-02-11T03:48:51.542Z,9.66
2023-02-11T03:51:20.169Z,9.66
2023-02-11T03:53:46.868Z,9.67
2023-02-11T03:56:16.984Z,9.72
2023-02-11T03:58:46.357Z,9.78
2023-02-11T04:01:13.087Z,9.64
2023-02-11T04:03:39.672Z,9.54
2023-02-11T04:06:06.580Z,9.49
2023-02-11T04:08:33.290Z,9.44
2023-02-11T04:10:59.883Z,9.30
2023-02-11T04:13:26.430Z,9.21
2023-02-11T04:15:53.470Z,9.25
2023-02-11T04:18:20.339Z,9.30
2023-02-11T04:20:47.146Z,9.40
2023-02-11T04:23:14.077Z,9.55
2023-02-11T04:25:40.630Z,9.62
2023-02-11T04:28:09.421Z,9.72
2023-02-11T04:30:36.034Z,9.81
2023-02-11T04:33:02.711Z,9.80
2023-02-11T04:35:29.383Z,9.90
2023-02-11T04:37:55.977Z,9.98
2023-02-11T04:40:22.625Z,9.99
2023-02-11T04:42:49.175Z,10.06
2023-02-11T04:45:15.782Z,10.09
2023-02-11T04:47:42.346Z,9.99
2023-02-11T04:50:09.071Z,9.87
2023-02-11T04:52:35.648Z,9.83
2023-02-11T04:55:02.241Z,9.65
2023-02-11T04:57:28.785Z,9.63
2023-02-11T04:59:55.393Z,9.65
2023-02-11T05:02:47.030Z,9.44
2023-02-11T05:05:13.677Z,9.34
2023-02-11T05:07:40.353Z,9.29
2023-02-11T05:10:06.990Z,9.18
2023-02-11T05:12:33.573Z,9.09
2023-02-11T05:15:02.053Z,8.98
2023-02-11T05:17:28.652Z,8.92
2023-02-11T05:19:55.203Z,8.90
2023-02-11T05:22:22.294Z,8.87
2023-02-11T05:24:49.257Z,8.95
2023-02-11T05:27:15.980Z,8.98
2023-02-11T05:29:42.608Z,8.91
2023-02-11T05:32:09.206Z,8.86
2023-02-11T05:34:36.116Z,8.89
2023-02-11T05:37:02.691Z,8.91
2023-02-11T05:39:29.346Z,9.02
2023-02-11T05:41:55.928Z,9.01
2023-02-11T05:44:22.590Z,9.05
2023-02-11T05:46:49.424Z,9.06
2023-02-11T05:49:16.740Z,8.99
2023-02-11T05:51:43.316Z,8.97
2023-02-11T05:54:10.876Z,9.01
2023-02-11T05:56:37.406Z,9.15
2023-02-11T05:59:04.087Z,9.12
2023-02-11T06:01:30.635Z,9.18
2023-02-11T06:03:57.654Z,9.28
2023-02-11T06:06:25.284Z,9.17
2023-02-11T06:08:52.114Z,9.11
2023-02-11T06:11:18.701Z,9.18
2023-02-11T06:13:45.320Z,9.05
2023-02-11T06:16:11.947Z,9.07
2023-02-11T06:18:38.646Z,8.93
2023-02-11T06:21:09.295Z,8.81
2023-02-11T06:23:36.038Z,8.76
2023-02-11T06:26:04.002Z,8.68
2023-02-11T06:28:31.520Z,8.62
2023-02-11T06:30:58.845Z,8.54
2023-02-11T06:33:25.560Z,8.45
2023-02-11T06:35:52.420Z,8.33
2023-02-11T06:38:19.188Z,8.28
2023-02-11T06:40:49.401Z,8.21
2023-02-11T06:43:16.196Z,8.21
2023-02-11T06:45:42.772Z,8.34
2023-02-11T06:48:09.573Z,8.38
2023-02-11T06:50:36.176Z,8.41
2023-02-11T06:53:02.832Z,8.35
2023-02-11T06:55:29.382Z,8.27
2023-02-11T06:57:56.043Z,8.20
2023-02-11T07:00:22.664Z,8.23
2023-02-11T07:02:49.318Z,8.18
2023-02-11T07:05:15.876Z,8.13
2023-02-11T07:07:42.495Z,8.07
2023-02-11T07:10:09.381Z,8.02
2023-02-11T07:12:35.962Z,8.09
2023-02-11T07:15:02.742Z,8.00
2023-02-11T07:17:29.445Z,8.13
2023-02-11T07:19:56.091Z,8.30
2023-02-11T07:22:22.640Z,8.22
2023-02-11T07:24:49.527Z,8.35
2023-02-11T07:27:16.065Z,8.33
2023-02-11T07:29:42.759Z,8.26
2023-02-11T07:32:09.351Z,8.20
2023-02-11T07:34:36.056Z,8.15
2023-02-11T07:37:03.038Z,8.11
2023-02-11T07:39:29.883Z,8.08
2023-02-11T07:41:56.923Z,8.08
2023-02-11T07:44:23.856Z,8.00
2023-02-11T07:46:50.722Z,7.91
2023-02-11T07:49:17.378Z,7.83
2023-02-11T07:51:44.015Z,7.74
2023-02-11T07:54:11.498Z,7.67
2023-02-11T07:56:38.061Z,7.64
2023-02-11T07:59:04.760Z,7.57
2023-02-11T08:01:31.452Z,7.55
2023-02-11T08:03:58.815Z,7.56
2023-02-11T08:06:27.003Z,7.57
2023-02-11T08:08:53.690Z,7.52
2023-02-11T08:11:24.190Z,7.58
2023-02-11T08:13:51.191Z,7.59
2023-02-11T08:16:22.291Z,7.53
2023-02-11T08:18:49.506Z,7.51
2023-02-11T08:21:16.153Z,7.51
2023-02-11T08:23:43.697Z,7.50
2023-02-11T08:26:14.166Z,7.53
2023-02-11T08:28:41.927Z,7.50
2023-02-11T08:31:13.512Z,7.52
2023-02-11T08:33:41.035Z,7.64
2023-02-11T08:36:08.650Z,7.73
2023-02-11T08:38:35.284Z,7.73
2023-02-11T08:41:01.912Z,7.50
2023-02-11T08:43:28.553Z,7.53
2023-02-11T08:45:55.223Z,7.53
2023-02-11T08:48:21.884Z,7.54
2023-02-11T08:50:48.480Z,7.56
2023-02-11T08:53:15.076Z,7.58
2023-02-11T08:55:48.157Z,7.63
2023-02-11T08:58:16.952Z,7.75
2023-02-11T09:00:45.393Z,7.88
2023-02-11T09:03:12.472Z,7.95
2023-02-11T09:05:43.011Z,7.98
2023-02-11T09:08:09.727Z,8.02
2023-02-11T09:10:36.925Z,8.11
2023-02-11T09:13:03.848Z,8.15
2023-02-11T09:15:30.823Z,8.24
2023-02-11T09:17:57.746Z,8.31
2023-02-11T09:20:24.606Z,8.35
2023-02-11T09:22:51.240Z,8.45
2023-02-11T09:25:17.889Z,8.50
2023-02-11T09:27:44.554Z,8.59
2023-02-11T09:30:11.282Z,8.73
2023-02-11T09:32:37.906Z,8.88
2023-02-11T09:35:05.101Z,9.05
2023-02-11T09:37:31.688Z,9.23
2023-02-11T09:39:59.326Z,9.44
2023-02-11T09:42:34.837Z,9.62
2023-02-11T09:45:02.586Z,9.92
2023-02-11T09:47:31.887Z,10.12
2023-02-11T09:50:12.434Z,10.52
2023-02-11T09:52:45.191Z,10.63
2023-02-11T09:55:16.949Z,10.83
2023-02-11T09:57:43.694Z,11.12
2023-02-11T10:00:28.832Z,11.11
2023-02-11T10:03:27.615Z,11.32
2023-02-11T10:06:13.042Z,11.70
2023-02-11T10:08:42.706Z,12.24
2023-02-11T10:11:30.698Z,12.34
2023-02-11T10:14:07.358Z,12.45
2023-02-11T10:16:40.098Z,12.38
2023-02-11T10:19:11.338Z,12.13
2023-02-11T10:21:47.842Z,12.29
2023-02-11T10:24:16.010Z,12.56
2023-02-11T10:26:43.481Z,13.04
2023-02-11T10:29:29.019Z,12.80
2023-02-11T10:31:58.334Z,12.22
2023-02-11T10:34:25.100Z,12.35
2023-02-11T10:36:51.701Z,12.43
2023-02-11T10:39:19.900Z,12.41
2023-02-11T10:41:55.360Z,12.48
2023-02-11T10:44:24.996Z,12.85
2023-02-11T10:46:52.249Z,13.23
2023-02-11T10:49:34.146Z,13.40
2023-02-11T10:52:14.663Z,13.20
2023-02-11T10:54:42.676Z,13.10
2023-02-11T10:57:17.177Z,13.01
2023-02-11T10:59:44.095Z,12.86
2023-02-11T11:02:34.319Z,12.57
2023-02-11T11:05:03.566Z,12.35
2023-02-11T11:07:31.623Z,12.17
2023-02-11T11:10:02.439Z,11.96
2023-02-11T11:12:29.079Z,11.97
2023-02-11T11:14:56.566Z,12.04
2023-02-11T11:17:23.202Z,12.07
2023-02-11T11:19:49.838Z,12.33
2023-02-11T11:22:22.719Z,12.48
2023-02-11T11:24:54.330Z,12.83
2023-02-11T11:27:25.096Z,12.87
2023-02-11T11:29:55.700Z,13.03
2023-02-11T11:32:24.088Z,13.23
2023-02-11T11:35:00.040Z,13.13
2023-02-11T11:37:28.445Z,13.12
2023-02-11T11:40:00.289Z,13.22
2023-02-11T11:42:29.659Z,13.35
2023-02-11T11:45:17.537Z,13.16
2023-02-11T11:47:59.689Z,12.43
2023-02-11T11:50:27.912Z,12.57
2023-02-11T11:53:00.224Z,12.07
2023-02-11T11:55:42.430Z,12.22
2023-02-11T11:58:20.128Z,12.22
2023-02-11T12:01:05.707Z,12.03
2023-02-11T12:03:41.360Z,11.95
2023-02-11T12:06:14.378Z,11.94
2023-02-11T12:08:59.868Z,11.77
2023-02-11T12:11:38.640Z,11.89
2023-02-11T12:14:24.308Z,11.91
2023-02-11T12:16:57.265Z,11.74
2023-02-11T12:19:35.780Z,11.88
2023-02-11T12:22:20.815Z,11.85
2023-02-11T12:24:50.207Z,11.79
2023-02-11T12:27:40.190Z,11.79
2023-02-11T12:30:12.555Z,11.72
2023-02-11T12:32:39.305Z,11.62
2023-02-11T12:35:15.036Z,11.65
2023-02-11T12:37:57.963Z,11.68
2023-02-11T12:40:28.641Z,11.67
2023-02-11T12:43:16.694Z,11.61
2023-02-11T12:45:52.957Z,11.57
2023-02-11T12:48:22.958Z,11.67
2023-02-11T12:51:09.483Z,11.71
2023-02-11T12:53:42.190Z,11.62
2023-02-11T12:56:16.211Z,11.71
2023-02-11T12:58:45.647Z,11.74
2023-02-11T13:01:33.890Z,11.62
2023-02-11T13:04:09.332Z,11.52
2023-02-11T13:06:41.835Z,11.43
2023-02-11T13:09:21.152Z,11.51
2023-02-11T13:11:54.829Z,11.57
2023-02-11T13:14:27.233Z,11.49
2023-02-11T13:16:55.291Z,11.51
2023-02-11T13:19:21.852Z,11.44
2023-02-11T13:21:56.225Z,11.39
2023-02-11T13:24:38.383Z,11.41
2023-02-11T13:27:08.075Z,11.45
2023-02-11T13:29:53.509Z,11.48
2023-02-11T13:32:20.170Z,11.50
2023-02-11T13:34:46.715Z,11.56
2023-02-11T13:37:22.189Z,11.59
2023-02-11T13:40:07.469Z,11.67
2023-02-11T13:42:46.700Z,11.76
2023-02-11T13:45:31.704Z,11.82
2023-02-11T13:47:59.687Z,11.78
2023-02-11T13:50:27.152Z,11.90
2023-02-11T13:52:58.990Z,11.83
2023-02-11T13:55:27.539Z,11.84
2023-02-11T13:58:14.012Z,11.93
2023-02-11T14:00:40.708Z,11.91
2023-02-11T14:03:29.110Z,11.85
2023-02-11T14:06:26.702Z,11.72
2023-02-11T14:09:08.922Z,11.70
2023-02-11T14:11:44.683Z,11.67
2023-02-11T14:14:25.403Z,11.77
2023-02-11T14:17:07.689Z,11.71
2023-02-11T14:19:34.406Z,11.67
2023-02-11T14:22:10.122Z,11.59
2023-02-11T14:24:36.643Z,11.56
2023-02-11T14:27:13.320Z,11.57
2023-02-11T14:29:48.810Z,11.60
2023-02-11T14:32:18.226Z,11.58
2023-02-11T14:35:20.266Z,11.45
2023-02-11T14:38:01.997Z,11.38
2023-02-11T14:40:52.144Z,11.41
2023-02-11T14:43:20.982Z,11.41
2023-02-11T14:45:50.386Z,11.44
2023-02-11T14:48:18.463Z,11.51
2023-02-11T14:50:48.597Z,11.53
2023-02-11T14:53:16.936Z,11.48
2023-02-11T14:55:45.692Z,11.43
2023-02-11T14:58:12.218Z,11.40
2023-02-11T15:00:46.946Z,11.32
2023-02-11T15:03:26.097Z,11.21
2023-02-11T15:05:56.973Z,11.14
2023-02-11T15:08:23.822Z,11.16
2023-02-11T15:10:50.745Z,11.14
2023-02-11T15:13:22.507Z,11.14
2023-02-11T15:15:51.934Z,11.11
2023-02-11T15:18:22.627Z,11.03
2023-02-11T15:20:50.075Z,10.96
2023-02-11T15:23:22.544Z,10.89
2023-02-11T15:25:52.677Z,10.87
2023-02-11T15:28:24.511Z,10.83
2023-02-11T15:31:04.451Z,10.83
2023-02-11T15:33:32.289Z,10.82
2023-02-11T15:36:00.126Z,10.79
2023-02-11T15:38:26.875Z,10.75
2023-02-11T15:41:03.635Z,10.74
2023-02-11T15:43:46.792Z,10.70
2023-02-11T15:46:23.300Z,10.65
2023-02-11T15:48:51.870Z,10.61
2023-02-11T15:51:18.858Z,10.51
2023-02-11T15:53:49.326Z,10.46
2023-02-11T15:56:24.267Z,10.47
2023-02-11T15:58:52.628Z,10.44
2023-02-11T16:01:19.354Z,10.41
2023-02-11T16:03:50.141Z,10.37
2023-02-11T16:06:16.716Z,10.28
2023-02-11T16:08:43.274Z,10.28
2023-02-11T16:11:24.715Z,10.25
2023-02-11T16:13:51.311Z,10.19
2023-02-11T16:16:23.033Z,10.19
2023-02-11T16:19:04.967Z,10.16
2023-02-11T16:21:38.994Z,10.14
2023-02-11T16:24:07.384Z,10.09
2023-02-11T16:26:34.022Z,10.11
2023-02-11T16:29:09.884Z,10.08
2023-02-11T16:31:38.180Z,10.09
2023-02-11T16:34:25.039Z,10.15
2023-02-11T16:36:52.189Z,10.13
2023-02-11T16:39:22.425Z,10.13
2023-02-11T16:41:50.764Z,10.08
2023-02-11T16:44:17.937Z,10.11
2023-02-11T16:46:44.885Z,10.10
2023-02-11T16:49:20.340Z,10.06
2023-02-11T16:51:48.821Z,10.06
2023-02-11T16:54:16.401Z,10.01
2023-02-11T16:56:43.435Z,10.04
2023-02-11T16:59:10.071Z,9.97
2023-02-11T17:01:38.359Z,10.05
2023-02-11T17:04:05.747Z,9.82
2023-02-11T17:06:33.658Z,9.71
2023-02-11T17:09:00.398Z,9.90
2023-02-11T17:11:27.046Z,9.84
2023-02-11T17:13:53.571Z,9.74
2023-02-11T17:16:21.520Z,9.71
2023-02-11T17:18:48.828Z,9.66
2023-02-11T17:21:15.688Z,9.74
2023-02-11T17:23:42.391Z,9.81
2023-02-11T17:26:09.323Z,9.88
2023-02-11T17:28:35.986Z,9.95
2023-02-11T17:31:06.667Z,10.00
2023-02-11T17:33:36.032Z,10.03
2023-02-11T17:36:07.132Z,10.10
2023-02-11T17:38:34.170Z,10.08
2023-02-11T17:41:01.672Z,10.06
2023-02-11T17:43:28.593Z,10.07
2023-02-11T17:45:55.266Z,10.09
2023-02-11T17:48:21.985Z,10.19
2023-02-11T17:50:48.632Z,10.15
2023-02-11T17:53:15.328Z,10.11
2023-02-11T17:55:42.140Z,10.09
2023-02-11T17:58:08.825Z,10.10
2023-02-11T18:00:35.477Z,10.25
2023-02-11T18:03:03.098Z,10.22
2023-02-11T18:05:36.305Z,10.16
2023-02-11T18:08:04.093Z,10.11
2023-02-11T18:10:31.123Z,10.05
2023-02-11T18:12:57.714Z,9.99
2023-02-11T18:15:24.355Z,9.96
2023-02-11T18:17:51.041Z,9.95
2023-02-11T18:20:17.666Z,9.83
2023-02-11T18:22:44.502Z,9.78
2023-02-11T18:25:13.366Z,9.78
2023-02-11T18:27:40.276Z,9.86
2023-02-11T18:30:07.305Z,9.82
2023-02-11T18:32:34.066Z,9.82
2023-02-11T18:35:00.648Z,9.84
2023-02-11T18:37:27.307Z,9.85
2023-02-11T18:39:53.910Z,9.89
2023-02-11T18:42:20.557Z,9.85
2023-02-11T18:44:47.072Z,9.84
2023-02-11T18:47:13.639Z,9.90
2023-02-11T18:49:40.340Z,9.85
2023-02-11T18:52:06.954Z,9.84
2023-02-11T18:54:33.512Z,9.71
2023-02-11T18:57:00.120Z,9.76
2023-02-11T18:59:26.704Z,9.73
2023-02-11T19:01:53.453Z,9.68
2023-02-11T19:04:20.249Z,9.64
2023-02-11T19:06:48.004Z,9.71
2023-02-11T19:09:15.640Z,9.65
2023-02-11T19:11:49.108Z,9.73
2023-02-11T19:14:20.707Z,9.64
2023-02-11T19:16:50.157Z,9.54
2023-02-11T19:19:17.631Z,9.55
2023-02-11T19:21:45.417Z,9.54
2023-02-11T19:24:12.740Z,9.36
2023-02-11T19:26:39.358Z,9.28
2023-02-11T19:29:06.544Z,9.31
2023-02-11T19:31:33.322Z,9.34
2023-02-11T19:34:00.293Z,9.24
2023-02-11T19:36:27.151Z,9.17
2023-02-11T19:38:53.986Z,9.15
2023-02-11T19:41:22.541Z,9.23
2023-02-11T19:43:52.831Z,9.24
2023-02-11T19:46:20.974Z,9.20
2023-02-11T19:48:48.093Z,9.03
2023-02-11T19:51:15.194Z,9.12
2023-02-11T19:53:42.426Z,8.98
2023-02-11T19:56:09.949Z,8.91
2023-02-11T19:58:37.300Z,8.91
2023-02-11T20:01:05.532Z,8.98
2023-02-11T20:03:32.279Z,9.01
2023-02-11T20:05:58.893Z,8.93
2023-02-11T20:08:25.489Z,8.96
2023-02-11T20:10:52.124Z,8.88
2023-02-11T20:13:18.672Z,8.90
2023-02-11T20:15:45.374Z,8.84
2023-02-11T20:18:12.015Z,8.86
2023-02-11T20:20:38.640Z,8.94
2023-02-11T20:23:05.318Z,8.94
2023-02-11T20:25:31.945Z,8.89
2023-02-11T20:27:58.539Z,8.78
2023-02-11T20:30:25.206Z,8.73
2023-02-11T20:32:51.963Z,8.74
2023-02-11T20:35:18.621Z,8.78
2023-02-11T20:37:45.187Z,8.74
2023-02-11T20:40:12.027Z,8.79
2023-02-11T20:42:38.607Z,8.74
2023-02-11T20:45:05.351Z,8.68
2023-02-11T20:47:31.922Z,8.69
2023-02-11T20:49:58.484Z,8.53
2023-02-11T20:52:25.103Z,8.61
2023-02-11T20:54:51.707Z,8.50
2023-02-11T20:57:18.361Z,8.52
2023-02-11T20:59:44.944Z,8.36
2023-02-11T21:02:13.277Z,8.29
2023-02-11T21:04:40.158Z,8.31
2023-02-11T21:07:06.749Z,8.33
2023-02-11T21:09:33.449Z,8.32
2023-02-11T21:12:00.571Z,8.32
2023-02-11T21:14:27.768Z,8.31
2023-02-11T21:16:54.804Z,8.28
2023-02-11T21:19:21.552Z,8.32
2023-02-11T21:21:48.379Z,8.37
2023-02-11T21:24:15.937Z,8.38
2023-02-11T21:26:43.016Z,8.42
2023-02-11T21:29:10.187Z,8.43
2023-02-11T21:31:37.501Z,8.39
2023-02-11T21:34:05.010Z,8.51
2023-02-11T21:36:31.684Z,8.40
2023-02-11T21:38:58.663Z,8.45
2023-02-11T21:41:26.944Z,8.44
2023-02-11T21:43:53.695Z,8.41
2023-02-11T21:46:20.707Z,8.29
2023-02-11T21:48:47.498Z,8.25
2023-02-11T21:51:15.880Z,8.17
2023-02-11T21:53:42.550Z,8.26
2023-02-11T21:56:11.018Z,8.33
2023-02-11T21:58:37.647Z,8.27
2023-02-11T22:01:14.546Z,8.24
2023-02-11T22:03:41.805Z,8.17
2023-02-11T22:06:13.339Z,8.24
2023-02-11T22:08:40.342Z,8.27
2023-02-11T22:11:08.040Z,8.27
2023-02-11T22:13:35.166Z,8.29
2023-02-11T22:16:03.367Z,8.27
2023-02-11T22:18:32.728Z,8.26
2023-02-11T22:21:00.305Z,8.33
2023-02-11T22:23:27.289Z,8.39
2023-02-11T22:25:54.325Z,8.34
2023-02-11T22:28:21.386Z,8.30
2023-02-11T22:30:52.469Z,8.32
2023-02-11T22:33:19.089Z,8.28
2023-02-11T22:35:45.659Z,8.22
2023-02-11T22:38:12.260Z,8.22
2023-02-11T22:40:42.960Z,8.22
2023-02-11T22:43:10.247Z,8.26
2023-02-11T22:48:20.261Z,8.23
2023-02-11T22:50:49.220Z,8.24
2023-02-11T22:53:15.817Z,8.23
2023-02-11T22:55:43.459Z,8.23
2023-02-11T22:58:10.097Z,8.26
2023-02-11T23:00:38.552Z,8.24
2023-02-11T23:03:05.852Z,8.23
2023-02-11T23:05:37.318Z,8.20
2023-02-11T23:08:04.036Z,8.18
2023-02-11T23:10:30.555Z,8.12
2023-02-11T23:12:57.166Z,8.15
2023-02-11T23:15:23.718Z,8.16
2023-02-11T23:17:50.381Z,8.17
2023-02-11T23:20:16.965Z,8.15
2023-02-11T23:22:43.560Z,8.16
2023-02-11T23:25:10.143Z,8.15
2023-02-11T23:27:36.790Z,8.18
2023-02-11T23:30:03.783Z,8.23
2023-02-11T23:32:30.442Z,8.25
2023-02-11T23:34:57.105Z,8.13
2023-02-11T23:37:23.707Z,8.00
2023-02-11T23:39:50.367Z,7.94
2023-02-11T23:42:16.949Z,7.95
2023-02-11T23:44:43.571Z,8.02
2023-02-11T23:47:10.281Z,8.13
2023-02-11T23:49:36.811Z,8.11
2023-02-11T23:52:03.671Z,8.01
2023-02-11T23:54:30.213Z,8.21
2023-02-11T23:56:56.790Z,8.04
2023-02-11T23:59:23.364Z,7.89
